sensor_id;sensor_type;location;lat;lon;timestamp;P1;durP1;ratioP1;P2;durP2;ratioP2
46230;SDS011;31949;51.404;-0.038;2023-05-10T00:01:14;3.30;;;2.25;;
46230;SDS011;31949;51.404;-0.038;2023-05-10T00:03:41;3.97;;;1.98;;
46230;SDS011;31949;51.404;-0.038;2023-05-10T00:06:09;3.13;;;2.28;;
46230;SDS011;31949;51.404;-0.038;2023-05-10T00:08:36;4.03;;;2.53;;
46230;SDS011;31949;51.404;-0.038;2023-05-10T00:11:03;3.90;;;2.15;;
46230;SDS011;31949;51.404;-0.038;2023-05-10T00:13:30;6.18;;;1.70;;
46230;SDS011;31949;51.404;-0.038;2023-05-10T00:15:58;2.55;;;1.60;;
46230;SDS011;31949;51.404;-0.038;2023-05-10T00:18:26;2.90;;;1.70;;
46230;SDS011;31949;51.404;-0.038;2023-05-10T00:20:53;4.88;;;2.33;;
46230;SDS011;31949;51.404;-0.038;2023-05-10T00:23:20;3.40;;;2.13;;
46230;SDS011;31949;51.404;-0.038;2023-05-10T00:25:47;3.63;;;2.15;;
46230;SDS011;31949;51.404;-0.038;2023-05-10T00:28:14;3.83;;;2.25;;
46230;SDS011;31949;51.404;-0.038;2023-05-10T00:30:41;5.03;;;2.20;;
46230;SDS011;31949;51.404;-0.038;2023-05-10T00:33:09;4.93;;;2.47;;
46230;SDS011;31949;51.404;-0.038;2023-05-10T00:35:36;5.80;;;2.70;;
46230;SDS011;31949;51.404;-0.038;2023-05-10T00:38:04;4.97;;;2.70;;
46230;SDS011;31949;51.404;-0.038;2023-05-10T00:40:31;5.78;;;3.60;;
46230;SDS011;31949;51.404;-0.038;2023-05-10T00:43:03;4.75;;;3.03;;
46230;SDS011;31949;51.404;-0.038;2023-05-10T00:45:31;4.22;;;3.22;;
46230;SDS011;31949;51.404;-0.038;2023-05-10T00:48:00;2.67;;;2.38;;
46230;SDS011;31949;51.404;-0.038;2023-05-10T00:50:30;6.20;;;3.15;;
46230;SDS011;31949;51.404;-0.038;2023-05-10T00:52:59;4.05;;;2.83;;
46230;SDS011;31949;51.404;-0.038;2023-05-10T00:55:27;4.60;;;2.67;;
46230;SDS011;31949;51.404;-0.038;2023-05-10T00:57:54;5.03;;;2.95;;
46230;SDS011;31949;51.404;-0.038;2023-05-10T01:00:22;5.78;;;3.20;;
46230;SDS011;31949;51.404;-0.038;2023-05-10T01:02:50;5.47;;;3.45;;
46230;SDS011;31949;51.404;-0.038;2023-05-10T01:05:17;7.07;;;3.38;;
46230;SDS011;31949;51.404;-0.038;2023-05-10T01:07:44;5.88;;;3.30;;
46230;SDS011;31949;51.404;-0.038;2023-05-10T01:10:12;7.18;;;3.33;;
46230;SDS011;31949;51.404;-0.038;2023-05-10T01:12:41;4.47;;;2.90;;
46230;SDS011;31949;51.404;-0.038;2023-05-10T01:15:11;4.55;;;3.15;;
46230;SDS011;31949;51.404;-0.038;2023-05-10T01:17:41;7.32;;;3.38;;
46230;SDS011;31949;51.404;-0.038;2023-05-10T01:20:11;4.22;;;2.60;;
46230;SDS011;31949;51.404;-0.038;2023-05-10T01:25:43;5.15;;;3.67;;
46230;SDS011;31949;51.404;-0.038;2023-05-10T01:31:30;5.15;;;2.97;;
46230;SDS011;31949;51.404;-0.038;2023-05-10T01:34:11;4.68;;;3.20;;
46230;SDS011;31949;51.404;-0.038;2023-05-10T01:36:45;7.53;;;3.78;;
46230;SDS011;31949;51.404;-0.038;2023-05-10T01:42:14;5.03;;;3.22;;
46230;SDS011;31949;51.404;-0.038;2023-05-10T01:44:49;5.38;;;3.22;;
46230;SDS011;31949;51.404;-0.038;2023-05-10T01:47:49;5.45;;;3.45;;
46230;SDS011;31949;51.404;-0.038;2023-05-10T01:50:22;5.90;;;2.97;;
46230;SDS011;31949;51.404;-0.038;2023-05-10T01:52:56;3.58;;;2.85;;
46230;SDS011;31949;51.404;-0.038;2023-05-10T01:55:29;6.90;;;3.47;;
46230;SDS011;31949;51.404;-0.038;2023-05-10T01:58:02;5.00;;;2.75;;
46230;SDS011;31949;51.404;-0.038;2023-05-10T02:00:32;4.78;;;3.80;;
46230;SDS011;31949;51.404;-0.038;2023-05-10T02:03:03;5.55;;;3.30;;
46230;SDS011;31949;51.404;-0.038;2023-05-10T02:05:33;5.33;;;2.63;;
46230;SDS011;31949;51.404;-0.038;2023-05-10T02:08:01;6.20;;;2.97;;
46230;SDS011;31949;51.404;-0.038;2023-05-10T02:10:33;3.03;;;2.13;;
46230;SDS011;31949;51.404;-0.038;2023-05-10T02:13:02;3.30;;;2.97;;
46230;SDS011;31949;51.404;-0.038;2023-05-10T02:15:30;2.97;;;2.47;;
46230;SDS011;31949;51.404;-0.038;2023-05-10T02:17:59;3.28;;;2.80;;
46230;SDS011;31949;51.404;-0.038;2023-05-10T02:20:29;3.67;;;2.88;;
46230;SDS011;31949;51.404;-0.038;2023-05-10T02:22:59;3.92;;;2.58;;
46230;SDS011;31949;51.404;-0.038;2023-05-10T02:25:28;5.18;;;3.33;;
46230;SDS011;31949;51.404;-0.038;2023-05-10T02:27:58;4.57;;;3.55;;
46230;SDS011;31949;51.404;-0.038;2023-05-10T02:30:28;8.68;;;3.97;;
46230;SDS011;31949;51.404;-0.038;2023-05-10T02:32:57;4.13;;;2.80;;
46230;SDS011;31949;51.404;-0.038;2023-05-10T02:35:26;5.22;;;3.03;;
46230;SDS011;31949;51.404;-0.038;2023-05-10T02:37:54;8.20;;;3.58;;
46230;SDS011;31949;51.404;-0.038;2023-05-10T02:40:24;4.05;;;2.78;;
46230;SDS011;31949;51.404;-0.038;2023-05-10T02:42:56;4.70;;;2.88;;
46230;SDS011;31949;51.404;-0.038;2023-05-10T02:45:27;7.55;;;3.05;;
46230;SDS011;31949;51.404;-0.038;2023-05-10T02:47:56;6.65;;;3.50;;
46230;SDS011;31949;51.404;-0.038;2023-05-10T02:50:25;4.15;;;3.22;;
46230;SDS011;31949;51.404;-0.038;2023-05-10T02:52:56;5.45;;;3.60;;
46230;SDS011;31949;51.404;-0.038;2023-05-10T02:55:31;5.22;;;4.45;;
46230;SDS011;31949;51.404;-0.038;2023-05-10T02:58:03;6.05;;;4.05;;
46230;SDS011;31949;51.404;-0.038;2023-05-10T03:00:30;5.55;;;3.80;;
46230;SDS011;31949;51.404;-0.038;2023-05-10T03:02:58;5.18;;;3.47;;
46230;SDS011;31949;51.404;-0.038;2023-05-10T03:05:26;5.60;;;3.35;;
46230;SDS011;31949;51.404;-0.038;2023-05-10T03:07:54;5.05;;;3.75;;
46230;SDS011;31949;51.404;-0.038;2023-05-10T03:10:27;6.80;;;4.15;;
46230;SDS011;31949;51.404;-0.038;2023-05-10T03:18:37;6.47;;;3.47;;
46230;SDS011;31949;51.404;-0.038;2023-05-10T03:21:11;7.93;;;4.03;;
46230;SDS011;31949;51.404;-0.038;2023-05-10T03:23:41;7.53;;;4.55;;
46230;SDS011;31949;51.404;-0.038;2023-05-10T03:26:31;8.45;;;4.20;;
46230;SDS011;31949;51.404;-0.038;2023-05-10T03:29:06;3.85;;;3.45;;
46230;SDS011;31949;51.404;-0.038;2023-05-10T03:31:35;7.97;;;4.35;;
46230;SDS011;31949;51.404;-0.038;2023-05-10T03:34:02;6.47;;;3.58;;
46230;SDS011;31949;51.404;-0.038;2023-05-10T03:36:30;5.95;;;2.97;;
46230;SDS011;31949;51.404;-0.038;2023-05-10T03:38:57;6.70;;;4.53;;
46230;SDS011;31949;51.404;-0.038;2023-05-10T03:41:25;5.65;;;3.75;;
46230;SDS011;31949;51.404;-0.038;2023-05-10T03:43:53;5.05;;;3.65;;
46230;SDS011;31949;51.404;-0.038;2023-05-10T03:46:20;5.55;;;3.38;;
46230;SDS011;31949;51.404;-0.038;2023-05-10T03:48:48;7.53;;;3.38;;
46230;SDS011;31949;51.404;-0.038;2023-05-10T03:51:15;6.03;;;3.85;;
46230;SDS011;31949;51.404;-0.038;2023-05-10T03:53:42;6.22;;;3.40;;
46230;SDS011;31949;51.404;-0.038;2023-05-10T03:56:09;6.25;;;3.88;;
46230;SDS011;31949;51.404;-0.038;2023-05-10T03:58:37;7.80;;;4.18;;
46230;SDS011;31949;51.404;-0.038;2023-05-10T04:01:04;4.97;;;3.65;;
46230;SDS011;31949;51.404;-0.038;2023-05-10T04:03:31;5.90;;;4.20;;
46230;SDS011;31949;51.404;-0.038;2023-05-10T04:05:59;6.55;;;3.65;;
46230;SDS011;31949;51.404;-0.038;2023-05-10T04:08:28;5.55;;;4.10;;
46230;SDS011;31949;51.404;-0.038;2023-05-10T04:11:05;6.13;;;3.90;;
46230;SDS011;31949;51.404;-0.038;2023-05-10T04:13:34;8.80;;;5.55;;
46230;SDS011;31949;51.404;-0.038;2023-05-10T04:16:02;5.70;;;4.30;;
46230;SDS011;31949;51.404;-0.038;2023-05-10T04:18:29;11.05;;;5.38;;
46230;SDS011;31949;51.404;-0.038;2023-05-10T04:20:57;7.22;;;4.03;;
46230;SDS011;31949;51.404;-0.038;2023-05-10T04:23:26;8.07;;;4.57;;
46230;SDS011;31949;51.404;-0.038;2023-05-10T04:26:00;6.15;;;4.55;;
46230;SDS011;31949;51.404;-0.038;2023-05-10T04:28:28;7.95;;;4.63;;
46230;SDS011;31949;51.404;-0.038;2023-05-10T04:31:05;9.75;;;5.80;;
46230;SDS011;31949;51.404;-0.038;2023-05-10T04:33:35;10.32;;;6.05;;
46230;SDS011;31949;51.404;-0.038;2023-05-10T04:36:03;16.48;;;7.93;;
46230;SDS011;31949;51.404;-0.038;2023-05-10T04:38:30;7.70;;;6.45;;
46230;SDS011;31949;51.404;-0.038;2023-05-10T04:41:08;10.48;;;7.88;;
46230;SDS011;31949;51.404;-0.038;2023-05-10T04:43:36;9.60;;;6.63;;
46230;SDS011;31949;51.404;-0.038;2023-05-10T04:46:07;15.35;;;7.13;;
46230;SDS011;31949;51.404;-0.038;2023-05-10T04:48:35;10.93;;;6.28;;
46230;SDS011;31949;51.404;-0.038;2023-05-10T04:51:02;11.23;;;6.78;;
46230;SDS011;31949;51.404;-0.038;2023-05-10T04:53:30;14.20;;;9.10;;
46230;SDS011;31949;51.404;-0.038;2023-05-10T04:55:58;12.95;;;8.20;;
46230;SDS011;31949;51.404;-0.038;2023-05-10T04:58:25;11.25;;;8.32;;
46230;SDS011;31949;51.404;-0.038;2023-05-10T05:00:52;10.32;;;6.20;;
46230;SDS011;31949;51.404;-0.038;2023-05-10T05:03:19;10.50;;;6.65;;
46230;SDS011;31949;51.404;-0.038;2023-05-10T05:05:46;14.20;;;8.00;;
46230;SDS011;31949;51.404;-0.038;2023-05-10T05:08:14;8.57;;;6.40;;
46230;SDS011;31949;51.404;-0.038;2023-05-10T05:10:41;9.88;;;6.40;;
46230;SDS011;31949;51.404;-0.038;2023-05-10T05:13:09;11.38;;;7.38;;
46230;SDS011;31949;51.404;-0.038;2023-05-10T05:15:38;9.38;;;6.72;;
46230;SDS011;31949;51.404;-0.038;2023-05-10T05:18:06;10.65;;;7.30;;
46230;SDS011;31949;51.404;-0.038;2023-05-10T05:20:33;11.52;;;7.13;;
46230;SDS011;31949;51.404;-0.038;2023-05-10T05:23:01;16.40;;;9.20;;
46230;SDS011;31949;51.404;-0.038;2023-05-10T05:25:28;16.05;;;7.93;;
46230;SDS011;31949;51.404;-0.038;2023-05-10T05:27:55;15.48;;;8.68;;
46230;SDS011;31949;51.404;-0.038;2023-05-10T05:30:23;16.42;;;8.35;;
46230;SDS011;31949;51.404;-0.038;2023-05-10T05:32:50;13.05;;;8.40;;
46230;SDS011;31949;51.404;-0.038;2023-05-10T05:35:17;14.02;;;8.35;;
46230;SDS011;31949;51.404;-0.038;2023-05-10T05:37:45;16.13;;;7.88;;
46230;SDS011;31949;51.404;-0.038;2023-05-10T05:40:12;13.73;;;8.50;;
46230;SDS011;31949;51.404;-0.038;2023-05-10T05:42:40;16.02;;;8.52;;
46230;SDS011;31949;51.404;-0.038;2023-05-10T05:45:08;14.15;;;8.50;;
46230;SDS011;31949;51.404;-0.038;2023-05-10T05:47:39;14.50;;;10.07;;
46230;SDS011;31949;51.404;-0.038;2023-05-10T05:50:07;15.52;;;9.32;;
46230;SDS011;31949;51.404;-0.038;2023-05-10T05:52:35;14.13;;;8.43;;
46230;SDS011;31949;51.404;-0.038;2023-05-10T05:55:04;12.20;;;9.15;;
46230;SDS011;31949;51.404;-0.038;2023-05-10T05:57:33;14.32;;;8.23;;
46230;SDS011;31949;51.404;-0.038;2023-05-10T06:00:00;14.07;;;8.15;;
46230;SDS011;31949;51.404;-0.038;2023-05-10T06:02:38;16.98;;;7.80;;
46230;SDS011;31949;51.404;-0.038;2023-05-10T06:05:05;16.48;;;7.57;;
46230;SDS011;31949;51.404;-0.038;2023-05-10T06:07:33;13.38;;;8.15;;
46230;SDS011;31949;51.404;-0.038;2023-05-10T06:10:00;14.10;;;8.35;;
46230;SDS011;31949;51.404;-0.038;2023-05-10T06:12:28;14.63;;;7.00;;
46230;SDS011;31949;51.404;-0.038;2023-05-10T06:14:55;11.63;;;7.43;;
46230;SDS011;31949;51.404;-0.038;2023-05-10T06:17:22;12.55;;;6.93;;
46230;SDS011;31949;51.404;-0.038;2023-05-10T06:19:50;11.73;;;6.43;;
46230;SDS011;31949;51.404;-0.038;2023-05-10T06:22:17;14.40;;;8.93;;
46230;SDS011;31949;51.404;-0.038;2023-05-10T06:24:45;14.45;;;8.55;;
46230;SDS011;31949;51.404;-0.038;2023-05-10T06:27:12;13.38;;;8.45;;
46230;SDS011;31949;51.404;-0.038;2023-05-10T06:29:39;11.57;;;7.80;;
46230;SDS011;31949;51.404;-0.038;2023-05-10T06:32:07;15.18;;;9.20;;
46230;SDS011;31949;51.404;-0.038;2023-05-10T06:34:34;13.02;;;7.70;;
46230;SDS011;31949;51.404;-0.038;2023-05-10T06:37:01;13.13;;;6.97;;
46230;SDS011;31949;51.404;-0.038;2023-05-10T06:39:29;8.35;;;6.22;;
46230;SDS011;31949;51.404;-0.038;2023-05-10T06:41:57;10.70;;;7.45;;
46230;SDS011;31949;51.404;-0.038;2023-05-10T06:44:31;15.05;;;7.85;;
46230;SDS011;31949;51.404;-0.038;2023-05-10T06:46:58;14.80;;;7.55;;
46230;SDS011;31949;51.404;-0.038;2023-05-10T06:49:25;8.93;;;6.50;;
46230;SDS011;31949;51.404;-0.038;2023-05-10T06:51:52;9.10;;;6.53;;
46230;SDS011;31949;51.404;-0.038;2023-05-10T06:54:20;13.90;;;6.32;;
46230;SDS011;31949;51.404;-0.038;2023-05-10T06:56:47;12.10;;;7.05;;
46230;SDS011;31949;51.404;-0.038;2023-05-10T06:59:14;8.10;;;5.45;;
46230;SDS011;31949;51.404;-0.038;2023-05-10T07:01:43;8.10;;;4.85;;
46230;SDS011;31949;51.404;-0.038;2023-05-10T07:04:10;8.50;;;6.22;;
46230;SDS011;31949;51.404;-0.038;2023-05-10T07:06:37;13.57;;;5.95;;
46230;SDS011;31949;51.404;-0.038;2023-05-10T07:09:04;11.40;;;5.30;;
46230;SDS011;31949;51.404;-0.038;2023-05-10T07:11:31;10.32;;;4.05;;
46230;SDS011;31949;51.404;-0.038;2023-05-10T07:13:59;9.57;;;4.97;;
46230;SDS011;31949;51.404;-0.038;2023-05-10T07:16:26;10.40;;;4.72;;
46230;SDS011;31949;51.404;-0.038;2023-05-10T07:18:53;7.75;;;4.88;;
46230;SDS011;31949;51.404;-0.038;2023-05-10T07:21:20;11.20;;;5.00;;
46230;SDS011;31949;51.404;-0.038;2023-05-10T07:23:50;9.15;;;4.50;;
46230;SDS011;31949;51.404;-0.038;2023-05-10T07:26:18;16.08;;;5.15;;
46230;SDS011;31949;51.404;-0.038;2023-05-10T07:28:46;10.77;;;4.18;;
46230;SDS011;31949;51.404;-0.038;2023-05-10T07:31:13;10.20;;;4.55;;
46230;SDS011;31949;51.404;-0.038;2023-05-10T07:33:40;10.10;;;4.85;;
46230;SDS011;31949;51.404;-0.038;2023-05-10T07:36:07;13.30;;;5.55;;
46230;SDS011;31949;51.404;-0.038;2023-05-10T07:38:35;8.27;;;5.35;;
46230;SDS011;31949;51.404;-0.038;2023-05-10T07:41:05;10.80;;;5.80;;
46230;SDS011;31949;51.404;-0.038;2023-05-10T07:43:32;13.35;;;5.10;;
46230;SDS011;31949;51.404;-0.038;2023-05-10T07:45:59;8.15;;;4.38;;
46230;SDS011;31949;51.404;-0.038;2023-05-10T07:48:26;8.63;;;3.38;;
46230;SDS011;31949;51.404;-0.038;2023-05-10T07:50:53;11.40;;;4.63;;
46230;SDS011;31949;51.404;-0.038;2023-05-10T07:53:20;9.35;;;4.82;;
46230;SDS011;31949;51.404;-0.038;2023-05-10T07:55:51;6.88;;;3.42;;
46230;SDS011;31949;51.404;-0.038;2023-05-10T07:58:20;9.85;;;3.88;;
46230;SDS011;31949;51.404;-0.038;2023-05-10T08:00:48;11.70;;;5.53;;
46230;SDS011;31949;51.404;-0.038;2023-05-10T08:03:15;8.73;;;4.85;;
46230;SDS011;31949;51.404;-0.038;2023-05-10T08:05:43;9.48;;;4.57;;
46230;SDS011;31949;51.404;-0.038;2023-05-10T08:08:11;12.13;;;4.90;;
46230;SDS011;31949;51.404;-0.038;2023-05-10T08:10:38;10.15;;;4.82;;
46230;SDS011;31949;51.404;-0.038;2023-05-10T08:13:05;9.70;;;4.50;;
46230;SDS011;31949;51.404;-0.038;2023-05-10T08:15:33;12.57;;;5.80;;
46230;SDS011;31949;51.404;-0.038;2023-05-10T08:18:00;14.23;;;5.78;;
46230;SDS011;31949;51.404;-0.038;2023-05-10T08:20:27;11.35;;;4.65;;
46230;SDS011;31949;51.404;-0.038;2023-05-10T08:22:54;7.80;;;4.38;;
46230;SDS011;31949;51.404;-0.038;2023-05-10T08:25:21;9.82;;;3.50;;
46230;SDS011;31949;51.404;-0.038;2023-05-10T08:27:49;11.63;;;4.40;;
46230;SDS011;31949;51.404;-0.038;2023-05-10T08:30:16;12.23;;;4.35;;
46230;SDS011;31949;51.404;-0.038;2023-05-10T08:32:43;15.52;;;4.55;;
46230;SDS011;31949;51.404;-0.038;2023-05-10T08:35:11;9.30;;;4.72;;
46230;SDS011;31949;51.404;-0.038;2023-05-10T08:37:38;20.17;;;5.30;;
46230;SDS011;31949;51.404;-0.038;2023-05-10T08:40:05;8.27;;;4.50;;
46230;SDS011;31949;51.404;-0.038;2023-05-10T08:42:34;8.57;;;4.47;;
46230;SDS011;31949;51.404;-0.038;2023-05-10T08:45:04;12.02;;;3.85;;
46230;SDS011;31949;51.404;-0.038;2023-05-10T08:47:34;12.40;;;4.68;;
46230;SDS011;31949;51.404;-0.038;2023-05-10T08:50:04;14.13;;;5.28;;
46230;SDS011;31949;51.404;-0.038;2023-05-10T08:52:33;14.32;;;5.45;;
46230;SDS011;31949;51.404;-0.038;2023-05-10T08:57:32;10.40;;;5.38;;
46230;SDS011;31949;51.404;-0.038;2023-05-10T09:00:00;14.23;;;4.78;;
46230;SDS011;31949;51.404;-0.038;2023-05-10T09:02:30;11.93;;;4.30;;
46230;SDS011;31949;51.404;-0.038;2023-05-10T09:04:57;7.63;;;4.68;;
46230;SDS011;31949;51.404;-0.038;2023-05-10T09:07:25;11.13;;;4.55;;
46230;SDS011;31949;51.404;-0.038;2023-05-10T09:09:52;9.00;;;4.80;;
46230;SDS011;31949;51.404;-0.038;2023-05-10T09:12:22;11.30;;;4.90;;
46230;SDS011;31949;51.404;-0.038;2023-05-10T09:14:50;8.40;;;4.95;;
46230;SDS011;31949;51.404;-0.038;2023-05-10T09:17:19;10.00;;;4.97;;
46230;SDS011;31949;51.404;-0.038;2023-05-10T09:19:46;8.57;;;5.20;;
46230;SDS011;31949;51.404;-0.038;2023-05-10T09:22:14;14.75;;;5.30;;
46230;SDS011;31949;51.404;-0.038;2023-05-10T09:24:42;8.70;;;5.20;;
46230;SDS011;31949;51.404;-0.038;2023-05-10T09:27:11;8.27;;;5.35;;
46230;SDS011;31949;51.404;-0.038;2023-05-10T09:29:41;12.80;;;5.68;;
46230;SDS011;31949;51.404;-0.038;2023-05-10T09:32:09;9.52;;;5.45;;
46230;SDS011;31949;51.404;-0.038;2023-05-10T09:34:36;9.10;;;5.03;;
46230;SDS011;31949;51.404;-0.038;2023-05-10T09:37:06;9.38;;;4.45;;
46230;SDS011;31949;51.404;-0.038;2023-05-10T09:39:35;8.98;;;4.78;;
46230;SDS011;31949;51.404;-0.038;2023-05-10T09:42:04;11.35;;;5.13;;
46230;SDS011;31949;51.404;-0.038;2023-05-10T09:44:36;8.20;;;4.13;;
46230;SDS011;31949;51.404;-0.038;2023-05-10T09:47:05;9.45;;;4.32;;
46230;SDS011;31949;51.404;-0.038;2023-05-10T09:49:32;8.00;;;3.70;;
46230;SDS011;31949;51.404;-0.038;2023-05-10T09:52:03;7.32;;;4.10;;
46230;SDS011;31949;51.404;-0.038;2023-05-10T09:54:33;8.40;;;4.40;;
46230;SDS011;31949;51.404;-0.038;2023-05-10T09:57:00;10.70;;;6.28;;
46230;SDS011;31949;51.404;-0.038;2023-05-10T09:59:28;11.23;;;5.13;;
46230;SDS011;31949;51.404;-0.038;2023-05-10T10:01:57;8.52;;;4.97;;
46230;SDS011;31949;51.404;-0.038;2023-05-10T10:04:27;9.13;;;3.60;;
46230;SDS011;31949;51.404;-0.038;2023-05-10T10:07:02;11.50;;;5.15;;
46230;SDS011;31949;51.404;-0.038;2023-05-10T10:09:31;8.38;;;4.72;;
46230;SDS011;31949;51.404;-0.038;2023-05-10T10:12:02;7.82;;;4.78;;
46230;SDS011;31949;51.404;-0.038;2023-05-10T10:14:31;6.63;;;5.22;;
46230;SDS011;31949;51.404;-0.038;2023-05-10T10:17:00;8.88;;;4.72;;
46230;SDS011;31949;51.404;-0.038;2023-05-10T10:19:30;7.88;;;5.22;;
46230;SDS011;31949;51.404;-0.038;2023-05-10T10:22:00;9.18;;;5.03;;
46230;SDS011;31949;51.404;-0.038;2023-05-10T10:24:27;7.57;;;4.40;;
46230;SDS011;31949;51.404;-0.038;2023-05-10T10:26:55;7.75;;;4.38;;
46230;SDS011;31949;51.404;-0.038;2023-05-10T10:29:39;8.40;;;4.28;;
46230;SDS011;31949;51.404;-0.038;2023-05-10T10:35:45;7.05;;;3.85;;
46230;SDS011;31949;51.404;-0.038;2023-05-10T10:38:13;8.95;;;4.32;;
46230;SDS011;31949;51.404;-0.038;2023-05-10T10:40:40;11.40;;;5.22;;
46230;SDS011;31949;51.404;-0.038;2023-05-10T10:48:41;9.02;;;4.10;;
46230;SDS011;31949;51.404;-0.038;2023-05-10T10:51:14;9.88;;;4.95;;
46230;SDS011;31949;51.404;-0.038;2023-05-10T10:53:41;10.30;;;4.25;;
46230;SDS011;31949;51.404;-0.038;2023-05-10T10:56:10;7.50;;;3.95;;
46230;SDS011;31949;51.404;-0.038;2023-05-10T10:58:40;10.73;;;4.05;;
46230;SDS011;31949;51.404;-0.038;2023-05-10T11:04:16;6.00;;;4.18;;
46230;SDS011;31949;51.404;-0.038;2023-05-10T11:06:42;4.90;;;3.70;;
46230;SDS011;31949;51.404;-0.038;2023-05-10T11:09:10;6.47;;;4.13;;
46230;SDS011;31949;51.404;-0.038;2023-05-10T11:11:51;7.78;;;3.67;;
46230;SDS011;31949;51.404;-0.038;2023-05-10T11:14:21;8.75;;;4.20;;
46230;SDS011;31949;51.404;-0.038;2023-05-10T11:16:49;6.78;;;3.60;;
46230;SDS011;31949;51.404;-0.038;2023-05-10T11:19:17;6.97;;;3.53;;
46230;SDS011;31949;51.404;-0.038;2023-05-10T11:21:47;7.72;;;4.07;;
46230;SDS011;31949;51.404;-0.038;2023-05-10T11:24:22;7.78;;;3.63;;
46230;SDS011;31949;51.404;-0.038;2023-05-10T11:26:53;7.10;;;2.97;;
46230;SDS011;31949;51.404;-0.038;2023-05-10T11:29:20;8.75;;;3.40;;
46230;SDS011;31949;51.404;-0.038;2023-05-10T11:31:48;4.45;;;2.50;;
46230;SDS011;31949;51.404;-0.038;2023-05-10T11:34:23;6.05;;;2.75;;
46230;SDS011;31949;51.404;-0.038;2023-05-10T11:37:00;7.78;;;3.15;;
46230;SDS011;31949;51.404;-0.038;2023-05-10T11:39:28;4.00;;;2.60;;
46230;SDS011;31949;51.404;-0.038;2023-05-10T11:41:59;3.65;;;2.00;;
46230;SDS011;31949;51.404;-0.038;2023-05-10T11:44:30;6.10;;;2.33;;
46230;SDS011;31949;51.404;-0.038;2023-05-10T11:47:01;6.50;;;3.70;;
46230;SDS011;31949;51.404;-0.038;2023-05-10T11:49:28;8.27;;;3.28;;
46230;SDS011;31949;51.404;-0.038;2023-05-10T11:52:05;4.78;;;2.58;;
46230;SDS011;31949;51.404;-0.038;2023-05-10T11:54:33;4.00;;;1.67;;
46230;SDS011;31949;51.404;-0.038;2023-05-10T11:57:03;5.90;;;2.08;;
46230;SDS011;31949;51.404;-0.038;2023-05-10T11:59:31;5.97;;;2.08;;
46230;SDS011;31949;51.404;-0.038;2023-05-10T12:01:58;5.03;;;2.08;;
46230;SDS011;31949;51.404;-0.038;2023-05-10T12:04:26;5.82;;;2.38;;
46230;SDS011;31949;51.404;-0.038;2023-05-10T12:06:56;3.55;;;1.92;;
46230;SDS011;31949;51.404;-0.038;2023-05-10T12:09:24;4.95;;;2.10;;
46230;SDS011;31949;51.404;-0.038;2023-05-10T12:12:08;6.60;;;2.67;;
46230;SDS011;31949;51.404;-0.038;2023-05-10T12:14:36;5.05;;;2.10;;
46230;SDS011;31949;51.404;-0.038;2023-05-10T12:17:03;6.32;;;2.33;;
46230;SDS011;31949;51.404;-0.038;2023-05-10T12:19:37;4.38;;;2.35;;
46230;SDS011;31949;51.404;-0.038;2023-05-10T12:22:05;6.43;;;2.00;;
46230;SDS011;31949;51.404;-0.038;2023-05-10T12:24:36;4.05;;;2.38;;
46230;SDS011;31949;51.404;-0.038;2023-05-10T12:27:05;4.30;;;2.33;;
46230;SDS011;31949;51.404;-0.038;2023-05-10T12:29:34;8.38;;;2.20;;
46230;SDS011;31949;51.404;-0.038;2023-05-10T12:32:02;3.88;;;1.40;;
46230;SDS011;31949;51.404;-0.038;2023-05-10T12:36:58;4.85;;;1.58;;
46230;SDS011;31949;51.404;-0.038;2023-05-10T12:39:25;4.45;;;1.95;;
46230;SDS011;31949;51.404;-0.038;2023-05-10T12:41:52;5.07;;;1.80;;
46230;SDS011;31949;51.404;-0.038;2023-05-10T12:44:20;3.30;;;1.60;;
46230;SDS011;31949;51.404;-0.038;2023-05-10T12:46:47;4.47;;;1.67;;
46230;SDS011;31949;51.404;-0.038;2023-05-10T12:49:14;4.30;;;1.75;;
46230;SDS011;31949;51.404;-0.038;2023-05-10T12:51:43;4.97;;;2.13;;
46230;SDS011;31949;51.404;-0.038;2023-05-10T12:54:10;5.85;;;1.90;;
46230;SDS011;31949;51.404;-0.038;2023-05-10T12:56:37;5.82;;;1.92;;
46230;SDS011;31949;51.404;-0.038;2023-05-10T12:59:04;6.55;;;2.00;;
46230;SDS011;31949;51.404;-0.038;2023-05-10T13:01:31;3.95;;;2.25;;
46230;SDS011;31949;51.404;-0.038;2023-05-10T13:03:58;5.43;;;2.58;;
46230;SDS011;31949;51.404;-0.038;2023-05-10T13:06:26;6.43;;;2.58;;
46230;SDS011;31949;51.404;-0.038;2023-05-10T13:08:53;6.38;;;2.40;;
46230;SDS011;31949;51.404;-0.038;2023-05-10T13:11:21;7.25;;;3.15;;
46230;SDS011;31949;51.404;-0.038;2023-05-10T13:13:48;4.05;;;3.03;;
46230;SDS011;31949;51.404;-0.038;2023-05-10T13:16:15;5.22;;;2.47;;
46230;SDS011;31949;51.404;-0.038;2023-05-10T13:18:42;6.70;;;2.58;;
46230;SDS011;31949;51.404;-0.038;2023-05-10T13:21:09;6.22;;;2.80;;
46230;SDS011;31949;51.404;-0.038;2023-05-10T13:23:37;7.20;;;2.97;;
46230;SDS011;31949;51.404;-0.038;2023-05-10T13:26:05;3.67;;;2.70;;
46230;SDS011;31949;51.404;-0.038;2023-05-10T13:28:32;6.47;;;2.22;;
46230;SDS011;31949;51.404;-0.038;2023-05-10T13:30:59;4.82;;;2.83;;
46230;SDS011;31949;51.404;-0.038;2023-05-10T13:33:27;5.93;;;1.83;;
46230;SDS011;31949;51.404;-0.038;2023-05-10T13:35:54;3.70;;;1.77;;
46230;SDS011;31949;51.404;-0.038;2023-05-10T13:38:21;4.43;;;2.50;;
46230;SDS011;31949;51.404;-0.038;2023-05-10T13:40:48;4.97;;;2.47;;
46230;SDS011;31949;51.404;-0.038;2023-05-10T13:43:19;5.35;;;2.63;;
46230;SDS011;31949;51.404;-0.038;2023-05-10T13:45:46;4.57;;;2.40;;
46230;SDS011;31949;51.404;-0.038;2023-05-10T13:48:13;5.85;;;2.63;;
46230;SDS011;31949;51.404;-0.038;2023-05-10T13:50:40;5.70;;;2.70;;
46230;SDS011;31949;51.404;-0.038;2023-05-10T13:53:08;6.40;;;2.70;;
46230;SDS011;31949;51.404;-0.038;2023-05-10T13:55:35;4.05;;;2.38;;
46230;SDS011;31949;51.404;-0.038;2023-05-10T13:58:02;5.55;;;2.30;;
46230;SDS011;31949;51.404;-0.038;2023-05-10T14:00:29;8.48;;;3.03;;
46230;SDS011;31949;51.404;-0.038;2023-05-10T14:02:56;8.10;;;3.10;;
46230;SDS011;31949;51.404;-0.038;2023-05-10T14:05:24;4.82;;;3.13;;
46230;SDS011;31949;51.404;-0.038;2023-05-10T14:07:52;6.10;;;2.80;;
46230;SDS011;31949;51.404;-0.038;2023-05-10T14:10:20;7.75;;;3.58;;
46230;SDS011;31949;51.404;-0.038;2023-05-10T14:12:47;6.30;;;3.17;;
46230;SDS011;31949;51.404;-0.038;2023-05-10T14:15:14;5.82;;;2.38;;
46230;SDS011;31949;51.404;-0.038;2023-05-10T14:17:42;3.47;;;2.45;;
46230;SDS011;31949;51.404;-0.038;2023-05-10T14:20:10;6.68;;;2.90;;
46230;SDS011;31949;51.404;-0.038;2023-05-10T14:22:37;3.83;;;2.20;;
46230;SDS011;31949;51.404;-0.038;2023-05-10T14:25:05;8.05;;;2.75;;
46230;SDS011;31949;51.404;-0.038;2023-05-10T14:27:32;8.48;;;2.50;;
46230;SDS011;31949;51.404;-0.038;2023-05-10T14:29:59;7.55;;;2.45;;
46230;SDS011;31949;51.404;-0.038;2023-05-10T14:32:26;6.20;;;2.75;;
46230;SDS011;31949;51.404;-0.038;2023-05-10T14:34:54;4.88;;;1.60;;
46230;SDS011;31949;51.404;-0.038;2023-05-10T14:37:22;6.32;;;2.30;;
46230;SDS011;31949;51.404;-0.038;2023-05-10T14:39:49;4.70;;;2.35;;
46230;SDS011;31949;51.404;-0.038;2023-05-10T14:42:16;3.85;;;1.92;;
46230;SDS011;31949;51.404;-0.038;2023-05-10T14:44:43;3.42;;;1.77;;
46230;SDS011;31949;51.404;-0.038;2023-05-10T14:47:10;5.47;;;1.77;;
46230;SDS011;31949;51.404;-0.038;2023-05-10T14:49:38;5.43;;;2.78;;
46230;SDS011;31949;51.404;-0.038;2023-05-10T14:52:05;3.40;;;1.60;;
46230;SDS011;31949;51.404;-0.038;2023-05-10T14:54:32;6.57;;;1.83;;
46230;SDS011;31949;51.404;-0.038;2023-05-10T14:56:59;3.55;;;1.40;;
46230;SDS011;31949;51.404;-0.038;2023-05-10T14:59:27;3.33;;;1.65;;
46230;SDS011;31949;51.404;-0.038;2023-05-10T15:01:54;2.63;;;1.33;;
46230;SDS011;31949;51.404;-0.038;2023-05-10T15:04:22;3.70;;;1.60;;
46230;SDS011;31949;51.404;-0.038;2023-05-10T15:06:50;2.72;;;1.65;;
46230;SDS011;31949;51.404;-0.038;2023-05-10T15:09:18;2.75;;;1.52;;
46230;SDS011;31949;51.404;-0.038;2023-05-10T15:11:46;2.42;;;1.05;;